sensor_id;sensor_type;location;lat;lon;timestamp;P1;durP1;ratioP1;P2;durP2;ratioP2
25247;SDS011;13191;47.472;11.214;2023-08-20T00:00:16;4.88;;;2.35;;
25247;SDS011;13191;47.472;11.214;2023-08-20T00:02:42;5.65;;;3.13;;
25247;SDS011;13191;47.472;11.214;2023-08-20T00:05:08;4.18;;;2.25;;
25247;SDS011;13191;47.472;11.214;2023-08-20T00:07:34;13.13;;;2.65;;
25247;SDS011;13191;47.472;11.214;2023-08-20T00:10:01;5.68;;;2.67;;
25247;SDS011;13191;47.472;11.214;2023-08-20T00:12:29;10.40;;;2.65;;
25247;SDS011;13191;47.472;11.214;2023-08-20T00:15:00;4.60;;;2.63;;
25247;SDS011;13191;47.472;11.214;2023-08-20T00:17:34;9.75;;;2.90;;
25247;SDS011;13191;47.472;11.214;2023-08-20T00:20:02;7.07;;;2.75;;
25247;SDS011;13191;47.472;11.214;2023-08-20T00:22:38;9.05;;;3.35;;
25247;SDS011;13191;47.472;11.214;2023-08-20T00:25:04;8.68;;;2.60;;
25247;SDS011;13191;47.472;11.214;2023-08-20T00:27:31;13.68;;;2.92;;
25247;SDS011;13191;47.472;11.214;2023-08-20T00:29:57;6.57;;;2.88;;
25247;SDS011;13191;47.472;11.214;2023-08-20T00:32:22;8.13;;;3.13;;
25247;SDS011;13191;47.472;11.214;2023-08-20T00:34:48;6.95;;;2.53;;
25247;SDS011;13191;47.472;11.214;2023-08-20T00:37:14;6.35;;;2.95;;
25247;SDS011;13191;47.472;11.214;2023-08-20T00:39:39;6.22;;;2.42;;
25247;SDS011;13191;47.472;11.214;2023-08-20T00:42:05;8.77;;;3.00;;
25247;SDS011;13191;47.472;11.214;2023-08-20T00:44:32;12.30;;;2.97;;
25247;SDS011;13191;47.472;11.214;2023-08-20T00:46:58;8.55;;;3.28;;
25247;SDS011;13191;47.472;11.214;2023-08-20T00:49:25;9.73;;;2.42;;
25247;SDS011;13191;47.472;11.214;2023-08-20T00:51:51;5.43;;;2.53;;
25247;SDS011;13191;47.472;11.214;2023-08-20T00:54:18;9.18;;;2.30;;
25247;SDS011;13191;47.472;11.214;2023-08-20T00:56:44;8.65;;;2.55;;
25247;SDS011;13191;47.472;11.214;2023-08-20T00:59:10;6.10;;;3.03;;
25247;SDS011;13191;47.472;11.214;2023-08-20T01:01:36;6.63;;;2.67;;
25247;SDS011;13191;47.472;11.214;2023-08-20T01:04:02;9.88;;;2.58;;
25247;SDS011;13191;47.472;11.214;2023-08-20T01:12:06;18.55;;;3.95;;
25247;SDS011;13191;47.472;11.214;2023-08-20T01:14:33;6.45;;;2.80;;
25247;SDS011;13191;47.472;11.214;2023-08-20T01:16:58;12.13;;;2.88;;
25247;SDS011;13191;47.472;11.214;2023-08-20T01:19:24;8.48;;;3.08;;
25247;SDS011;13191;47.472;11.214;2023-08-20T01:22:01;6.97;;;3.00;;
25247;SDS011;13191;47.472;11.214;2023-08-20T01:25:04;6.63;;;2.65;;
25247;SDS011;13191;47.472;11.214;2023-08-20T01:28:37;4.57;;;2.63;;
25247;SDS011;13191;47.472;11.214;2023-08-20T01:30:49;6.45;;;3.00;;
25247;SDS011;13191;47.472;11.214;2023-08-20T01:33:14;8.20;;;2.83;;
25247;SDS011;13191;47.472;11.214;2023-08-20T01:35:41;8.20;;;2.70;;
25247;SDS011;13191;47.472;11.214;2023-08-20T01:38:06;5.30;;;3.03;;
25247;SDS011;13191;47.472;11.214;2023-08-20T01:40:32;8.95;;;2.88;;
25247;SDS011;13191;47.472;11.214;2023-08-20T01:42:58;7.70;;;2.60;;
25247;SDS011;13191;47.472;11.214;2023-08-20T01:45:24;18.95;;;2.95;;
25247;SDS011;13191;47.472;11.214;2023-08-20T01:47:51;5.68;;;2.83;;
25247;SDS011;13191;47.472;11.214;2023-08-20T01:50:17;8.40;;;3.00;;
25247;SDS011;13191;47.472;11.214;2023-08-20T01:52:42;8.68;;;3.08;;
25247;SDS011;13191;47.472;11.214;2023-08-20T01:55:08;3.97;;;2.58;;
25247;SDS011;13191;47.472;11.214;2023-08-20T01:57:34;7.88;;;3.10;;
25247;SDS011;13191;47.472;11.214;2023-08-20T01:59:59;5.45;;;2.63;;
25247;SDS011;13191;47.472;11.214;2023-08-20T02:02:25;7.03;;;2.70;;
25247;SDS011;13191;47.472;11.214;2023-08-20T02:04:50;8.82;;;2.80;;
25247;SDS011;13191;47.472;11.214;2023-08-20T02:07:16;4.05;;;2.33;;
25247;SDS011;13191;47.472;11.214;2023-08-20T02:09:42;8.77;;;2.72;;
25247;SDS011;13191;47.472;11.214;2023-08-20T02:12:08;7.78;;;2.90;;
25247;SDS011;13191;47.472;11.214;2023-08-20T02:14:34;17.30;;;3.50;;
25247;SDS011;13191;47.472;11.214;2023-08-20T02:17:02;7.93;;;2.97;;
25247;SDS011;13191;47.472;11.214;2023-08-20T02:19:28;10.25;;;3.15;;
25247;SDS011;13191;47.472;11.214;2023-08-20T02:21:54;11.57;;;3.13;;
25247;SDS011;13191;47.472;11.214;2023-08-20T02:24:20;7.70;;;2.95;;
25247;SDS011;13191;47.472;11.214;2023-08-20T02:26:45;4.05;;;2.55;;
25247;SDS011;13191;47.472;11.214;2023-08-20T02:29:11;9.50;;;3.60;;
25247;SDS011;13191;47.472;11.214;2023-08-20T02:31:36;7.18;;;2.67;;
25247;SDS011;13191;47.472;11.214;2023-08-20T02:34:02;8.15;;;3.22;;
25247;SDS011;13191;47.472;11.214;2023-08-20T02:36:28;9.48;;;3.03;;
25247;SDS011;13191;47.472;11.214;2023-08-20T02:38:53;7.07;;;2.60;;
25247;SDS011;13191;47.472;11.214;2023-08-20T02:41:19;5.13;;;2.88;;
25247;SDS011;13191;47.472;11.214;2023-08-20T02:43:44;6.90;;;3.45;;
25247;SDS011;13191;47.472;11.214;2023-08-20T02:46:10;7.15;;;3.20;;
25247;SDS011;13191;47.472;11.214;2023-08-20T02:48:36;5.03;;;2.90;;
25247;SDS011;13191;47.472;11.214;2023-08-20T02:51:02;6.32;;;3.20;;
25247;SDS011;13191;47.472;11.214;2023-08-20T02:53:28;6.60;;;3.10;;
25247;SDS011;13191;47.472;11.214;2023-08-20T02:55:54;7.18;;;2.90;;
25247;SDS011;13191;47.472;11.214;2023-08-20T02:58:19;6.80;;;2.83;;
25247;SDS011;13191;47.472;11.214;2023-08-20T03:00:45;7.57;;;2.70;;
25247;SDS011;13191;47.472;11.214;2023-08-20T03:03:11;9.02;;;3.08;;
25247;SDS011;13191;47.472;11.214;2023-08-20T03:05:37;4.50;;;2.45;;
25247;SDS011;13191;47.472;11.214;2023-08-20T03:08:03;5.95;;;3.10;;
25247;SDS011;13191;47.472;11.214;2023-08-20T03:10:29;11.40;;;3.83;;
25247;SDS011;13191;47.472;11.214;2023-08-20T03:12:56;5.95;;;3.25;;
25247;SDS011;13191;47.472;11.214;2023-08-20T03:15:26;10.82;;;3.35;;
25247;SDS011;13191;47.472;11.214;2023-08-20T03:17:52;5.82;;;3.17;;
25247;SDS011;13191;47.472;11.214;2023-08-20T03:20:17;5.90;;;3.42;;
25247;SDS011;13191;47.472;11.214;2023-08-20T03:22:43;6.07;;;2.85;;
25247;SDS011;13191;47.472;11.214;2023-08-20T03:25:08;5.35;;;2.90;;
25247;SDS011;13191;47.472;11.214;2023-08-20T03:27:34;6.07;;;2.70;;
25247;SDS011;13191;47.472;11.214;2023-08-20T03:30:00;4.25;;;2.35;;
25247;SDS011;13191;47.472;11.214;2023-08-20T03:32:26;11.13;;;3.20;;
25247;SDS011;13191;47.472;11.214;2023-08-20T03:34:51;5.07;;;2.83;;
25247;SDS011;13191;47.472;11.214;2023-08-20T03:37:18;4.25;;;2.63;;
25247;SDS011;13191;47.472;11.214;2023-08-20T03:39:44;6.30;;;2.92;;
25247;SDS011;13191;47.472;11.214;2023-08-20T03:42:10;6.97;;;3.03;;
25247;SDS011;13191;47.472;11.214;2023-08-20T03:44:35;9.90;;;3.08;;
25247;SDS011;13191;47.472;11.214;2023-08-20T03:47:01;9.90;;;3.33;;
25247;SDS011;13191;47.472;11.214;2023-08-20T03:49:26;6.75;;;2.55;;
25247;SDS011;13191;47.472;11.214;2023-08-20T03:51:52;8.82;;;3.28;;
25247;SDS011;13191;47.472;11.214;2023-08-20T03:54:17;9.23;;;2.95;;
25247;SDS011;13191;47.472;11.214;2023-08-20T03:56:43;7.28;;;3.00;;
25247;SDS011;13191;47.472;11.214;2023-08-20T03:59:08;5.38;;;2.58;;
25247;SDS011;13191;47.472;11.214;2023-08-20T04:01:34;7.10;;;3.40;;
25247;SDS011;13191;47.472;11.214;2023-08-20T04:04:01;10.55;;;3.30;;
25247;SDS011;13191;47.472;11.214;2023-08-20T04:06:30;5.93;;;2.80;;
25247;SDS011;13191;47.472;11.214;2023-08-20T04:08:56;8.82;;;3.30;;
25247;SDS011;13191;47.472;11.214;2023-08-20T04:11:21;5.68;;;2.90;;
25247;SDS011;13191;47.472;11.214;2023-08-20T04:13:47;9.13;;;2.78;;
25247;SDS011;13191;47.472;11.214;2023-08-20T04:16:13;5.57;;;3.05;;
25247;SDS011;13191;47.472;11.214;2023-08-20T04:18:38;8.30;;;2.90;;
25247;SDS011;13191;47.472;11.214;2023-08-20T04:21:05;4.72;;;2.72;;
25247;SDS011;13191;47.472;11.214;2023-08-20T04:23:31;3.90;;;2.25;;
25247;SDS011;13191;47.472;11.214;2023-08-20T04:25:56;7.03;;;2.90;;
25247;SDS011;13191;47.472;11.214;2023-08-20T04:28:22;6.53;;;3.08;;
25247;SDS011;13191;47.472;11.214;2023-08-20T04:30:47;7.35;;;2.75;;
25247;SDS011;13191;47.472;11.214;2023-08-20T04:33:14;6.05;;;2.85;;
25247;SDS011;13191;47.472;11.214;2023-08-20T04:35:39;5.22;;;2.90;;
25247;SDS011;13191;47.472;11.214;2023-08-20T04:38:05;9.68;;;3.85;;
25247;SDS011;13191;47.472;11.214;2023-08-20T04:40:30;6.60;;;2.97;;
25247;SDS011;13191;47.472;11.214;2023-08-20T04:42:56;4.38;;;2.60;;
25247;SDS011;13191;47.472;11.214;2023-08-20T04:45:21;7.80;;;3.10;;
25247;SDS011;13191;47.472;11.214;2023-08-20T04:47:47;5.88;;;3.17;;
25247;SDS011;13191;47.472;11.214;2023-08-20T04:50:13;6.80;;;3.42;;
25247;SDS011;13191;47.472;11.214;2023-08-20T04:52:38;4.95;;;2.75;;
25247;SDS011;13191;47.472;11.214;2023-08-20T04:55:04;6.57;;;2.83;;
25247;SDS011;13191;47.472;11.214;2023-08-20T04:57:31;9.35;;;2.75;;
25247;SDS011;13191;47.472;11.214;2023-08-20T04:59:57;6.22;;;2.95;;
25247;SDS011;13191;47.472;11.214;2023-08-20T05:02:22;8.60;;;3.30;;
25247;SDS011;13191;47.472;11.214;2023-08-20T05:04:48;4.95;;;2.50;;
25247;SDS011;13191;47.472;11.214;2023-08-20T05:07:14;14.57;;;3.42;;
25247;SDS011;13191;47.472;11.214;2023-08-20T05:09:40;13.07;;;3.22;;
25247;SDS011;13191;47.472;11.214;2023-08-20T05:12:05;5.65;;;2.78;;
25247;SDS011;13191;47.472;11.214;2023-08-20T05:14:31;10.55;;;2.72;;
25247;SDS011;13191;47.472;11.214;2023-08-20T05:16:57;6.07;;;2.92;;
25247;SDS011;13191;47.472;11.214;2023-08-20T05:19:22;9.98;;;2.83;;
25247;SDS011;13191;47.472;11.214;2023-08-20T05:21:48;11.23;;;3.95;;
25247;SDS011;13191;47.472;11.214;2023-08-20T05:24:14;7.28;;;2.95;;
25247;SDS011;13191;47.472;11.214;2023-08-20T05:26:39;4.93;;;2.67;;
25247;SDS011;13191;47.472;11.214;2023-08-20T05:29:05;9.18;;;3.30;;
25247;SDS011;13191;47.472;11.214;2023-08-20T05:31:30;7.35;;;3.03;;
25247;SDS011;13191;47.472;11.214;2023-08-20T05:33:56;15.63;;;3.55;;
25247;SDS011;13191;47.472;11.214;2023-08-20T05:36:22;3.92;;;2.72;;
25247;SDS011;13191;47.472;11.214;2023-08-20T05:38:48;7.32;;;2.88;;
25247;SDS011;13191;47.472;11.214;2023-08-20T05:41:14;5.90;;;3.13;;
25247;SDS011;13191;47.472;11.214;2023-08-20T05:43:39;5.28;;;3.67;;
25247;SDS011;13191;47.472;11.214;2023-08-20T05:46:05;6.60;;;2.90;;
25247;SDS011;13191;47.472;11.214;2023-08-20T05:48:30;9.52;;;3.65;;
25247;SDS011;13191;47.472;11.214;2023-08-20T05:50:56;6.95;;;3.03;;
25247;SDS011;13191;47.472;11.214;2023-08-20T05:53:22;5.18;;;2.92;;
25247;SDS011;13191;47.472;11.214;2023-08-20T05:55:47;5.55;;;2.85;;
25247;SDS011;13191;47.472;11.214;2023-08-20T05:58:13;4.88;;;2.90;;
25247;SDS011;13191;47.472;11.214;2023-08-20T06:00:39;10.57;;;3.45;;
25247;SDS011;13191;47.472;11.214;2023-08-20T06:03:05;8.05;;;3.30;;
25247;SDS011;13191;47.472;11.214;2023-08-20T06:05:32;5.68;;;2.67;;
25247;SDS011;13191;47.472;11.214;2023-08-20T06:07:58;6.60;;;3.30;;
25247;SDS011;13191;47.472;11.214;2023-08-20T06:10:24;8.20;;;3.50;;
25247;SDS011;13191;47.472;11.214;2023-08-20T06:12:49;7.15;;;3.17;;
25247;SDS011;13191;47.472;11.214;2023-08-20T06:15:15;6.18;;;2.50;;
25247;SDS011;13191;47.472;11.214;2023-08-20T06:17:40;8.23;;;3.03;;
25247;SDS011;13191;47.472;11.214;2023-08-20T06:20:06;5.45;;;3.67;;
25247;SDS011;13191;47.472;11.214;2023-08-20T06:22:33;10.68;;;3.55;;
25247;SDS011;13191;47.472;11.214;2023-08-20T06:24:59;4.88;;;3.35;;
25247;SDS011;13191;47.472;11.214;2023-08-20T06:27:25;8.90;;;3.33;;
25247;SDS011;13191;47.472;11.214;2023-08-20T06:29:50;7.32;;;3.33;;
25247;SDS011;13191;47.472;11.214;2023-08-20T06:32:16;6.90;;;3.25;;
25247;SDS011;13191;47.472;11.214;2023-08-20T06:34:41;7.28;;;3.25;;
25247;SDS011;13191;47.472;11.214;2023-08-20T06:37:07;6.88;;;3.55;;
25247;SDS011;13191;47.472;11.214;2023-08-20T06:39:32;6.75;;;3.70;;
25247;SDS011;13191;47.472;11.214;2023-08-20T06:41:58;7.35;;;2.78;;
25247;SDS011;13191;47.472;11.214;2023-08-20T06:44:24;7.20;;;2.90;;
25247;SDS011;13191;47.472;11.214;2023-08-20T06:46:49;9.18;;;3.67;;
25247;SDS011;13191;47.472;11.214;2023-08-20T06:49:15;7.25;;;3.38;;
25247;SDS011;13191;47.472;11.214;2023-08-20T06:51:40;8.05;;;2.92;;
25247;SDS011;13191;47.472;11.214;2023-08-20T06:54:06;15.23;;;3.90;;
25247;SDS011;13191;47.472;11.214;2023-08-20T06:56:32;9.63;;;3.17;;
25247;SDS011;13191;47.472;11.214;2023-08-20T06:58:57;8.75;;;3.65;;
25247;SDS011;13191;47.472;11.214;2023-08-20T07:01:23;6.47;;;3.53;;
25247;SDS011;13191;47.472;11.214;2023-08-20T07:03:49;7.53;;;3.22;;
25247;SDS011;13191;47.472;11.214;2023-08-20T07:06:14;8.95;;;3.15;;
25247;SDS011;13191;47.472;11.214;2023-08-20T07:08:41;6.93;;;2.97;;
25247;SDS011;13191;47.472;11.214;2023-08-20T07:11:07;9.95;;;3.63;;
25247;SDS011;13191;47.472;11.214;2023-08-20T07:13:33;8.77;;;3.20;;
25247;SDS011;13191;47.472;11.214;2023-08-20T07:15:59;5.88;;;3.15;;
25247;SDS011;13191;47.472;11.214;2023-08-20T07:18:25;7.72;;;3.28;;
25247;SDS011;13191;47.472;11.214;2023-08-20T07:20:50;5.72;;;3.35;;
25247;SDS011;13191;47.472;11.214;2023-08-20T07:23:17;7.13;;;3.42;;
25247;SDS011;13191;47.472;11.214;2023-08-20T07:25:42;11.20;;;3.60;;
25247;SDS011;13191;47.472;11.214;2023-08-20T07:28:10;7.70;;;3.80;;
25247;SDS011;13191;47.472;11.214;2023-08-20T07:30:36;9.82;;;3.70;;
25247;SDS011;13191;47.472;11.214;2023-08-20T07:33:01;7.20;;;3.03;;
25247;SDS011;13191;47.472;11.214;2023-08-20T07:35:28;10.60;;;3.65;;
25247;SDS011;13191;47.472;11.214;2023-08-20T07:37:53;7.95;;;3.20;;
25247;SDS011;13191;47.472;11.214;2023-08-20T07:40:19;5.65;;;3.47;;
25247;SDS011;13191;47.472;11.214;2023-08-20T07:42:45;10.43;;;3.95;;
25247;SDS011;13191;47.472;11.214;2023-08-20T07:45:11;6.45;;;3.92;;
25247;SDS011;13191;47.472;11.214;2023-08-20T07:47:37;5.88;;;3.28;;
25247;SDS011;13191;47.472;11.214;2023-08-20T07:50:03;7.40;;;3.78;;
25247;SDS011;13191;47.472;11.214;2023-08-20T07:52:30;5.50;;;3.28;;
25247;SDS011;13191;47.472;11.214;2023-08-20T07:54:57;6.15;;;3.53;;
25247;SDS011;13191;47.472;11.214;2023-08-20T07:57:23;5.60;;;3.70;;
25247;SDS011;13191;47.472;11.214;2023-08-20T07:59:49;8.13;;;3.15;;
25247;SDS011;13191;47.472;11.214;2023-08-20T08:02:15;9.23;;;3.45;;
25247;SDS011;13191;47.472;11.214;2023-08-20T08:04:41;9.05;;;4.32;;
25247;SDS011;13191;47.472;11.214;2023-08-20T08:07:07;6.43;;;3.85;;
25247;SDS011;13191;47.472;11.214;2023-08-20T08:09:33;8.48;;;3.88;;
25247;SDS011;13191;47.472;11.214;2023-08-20T08:11:58;9.80;;;4.07;;
25247;SDS011;13191;47.472;11.214;2023-08-20T08:14:24;9.75;;;3.80;;
25247;SDS011;13191;47.472;11.214;2023-08-20T08:16:50;8.10;;;3.75;;
25247;SDS011;13191;47.472;11.214;2023-08-20T08:19:16;5.43;;;2.92;;
25247;SDS011;13191;47.472;11.214;2023-08-20T08:21:43;8.13;;;3.63;;
25247;SDS011;13191;47.472;11.214;2023-08-20T08:24:09;5.45;;;3.65;;
25247;SDS011;13191;47.472;11.214;2023-08-20T08:26:36;5.20;;;3.10;;
25247;SDS011;13191;47.472;11.214;2023-08-20T08:29:02;12.93;;;3.70;;
25247;SDS011;13191;47.472;11.214;2023-08-20T08:31:28;9.25;;;3.50;;
25247;SDS011;13191;47.472;11.214;2023-08-20T08:33:54;7.25;;;3.55;;
25247;SDS011;13191;47.472;11.214;2023-08-20T08:36:20;8.38;;;3.45;;
25247;SDS011;13191;47.472;11.214;2023-08-20T08:38:46;11.90;;;3.65;;
25247;SDS011;13191;47.472;11.214;2023-08-20T08:41:12;7.35;;;3.47;;
25247;SDS011;13191;47.472;11.214;2023-08-20T08:43:38;13.20;;;4.18;;
25247;SDS011;13191;47.472;11.214;2023-08-20T08:46:11;9.20;;;3.88;;
25247;SDS011;13191;47.472;11.214;2023-08-20T08:48:40;7.40;;;3.47;;
25247;SDS011;13191;47.472;11.214;2023-08-20T08:51:07;5.07;;;3.30;;
25247;SDS011;13191;47.472;11.214;2023-08-20T08:53:33;7.70;;;3.78;;
25247;SDS011;13191;47.472;11.214;2023-08-20T08:55:59;7.78;;;3.47;;
25247;SDS011;13191;47.472;11.214;2023-08-20T08:58:25;11.32;;;3.28;;
25247;SDS011;13191;47.472;11.214;2023-08-20T09:00:51;6.45;;;3.35;;
25247;SDS011;13191;47.472;11.214;2023-08-20T09:03:17;6.15;;;3.28;;
25247;SDS011;13191;47.472;11.214;2023-08-20T09:05:50;7.75;;;3.05;;
25247;SDS011;13191;47.472;11.214;2023-08-20T09:08:20;11.45;;;2.90;;
25247;SDS011;13191;47.472;11.214;2023-08-20T09:10:50;4.57;;;3.08;;
25247;SDS011;13191;47.472;11.214;2023-08-20T09:13:22;8.50;;;3.88;;
25247;SDS011;13191;47.472;11.214;2023-08-20T09:15:57;6.22;;;3.35;;
25247;SDS011;13191;47.472;11.214;2023-08-20T09:18:22;9.63;;;3.60;;
25247;SDS011;13191;47.472;11.214;2023-08-20T09:20:49;13.40;;;3.17;;
25247;SDS011;13191;47.472;11.214;2023-08-20T09:23:15;10.00;;;3.65;;
25247;SDS011;13191;47.472;11.214;2023-08-20T09:25:44;9.80;;;3.88;;
25247;SDS011;13191;47.472;11.214;2023-08-20T09:28:10;6.47;;;3.17;;
25247;SDS011;13191;47.472;11.214;2023-08-20T09:30:36;8.48;;;3.45;;
25247;SDS011;13191;47.472;11.214;2023-08-20T09:33:06;5.38;;;3.08;;
25247;SDS011;13191;47.472;11.214;2023-08-20T09:35:35;4.57;;;2.90;;
25247;SDS011;13191;47.472;11.214;2023-08-20T09:38:02;6.13;;;3.25;;
25247;SDS011;13191;47.472;11.214;2023-08-20T09:40:29;6.38;;;3.47;;
25247;SDS011;13191;47.472;11.214;2023-08-20T09:42:55;6.57;;;2.70;;
25247;SDS011;13191;47.472;11.214;2023-08-20T09:45:23;7.00;;;3.38;;
25247;SDS011;13191;47.472;11.214;2023-08-20T09:47:50;6.60;;;2.78;;
25247;SDS011;13191;47.472;11.214;2023-08-20T09:50:21;9.45;;;2.92;;
25247;SDS011;13191;47.472;11.214;2023-08-20T09:52:55;6.68;;;3.00;;
25247;SDS011;13191;47.472;11.214;2023-08-20T09:55:29;5.15;;;2.55;;
25247;SDS011;13191;47.472;11.214;2023-08-20T09:57:58;8.07;;;3.10;;
25247;SDS011;13191;47.472;11.214;2023-08-20T10:00:25;5.30;;;2.95;;
25247;SDS011;13191;47.472;11.214;2023-08-20T10:02:52;7.65;;;3.08;;
25247;SDS011;13191;47.472;11.214;2023-08-20T10:05:18;9.40;;;3.00;;
25247;SDS011;13191;47.472;11.214;2023-08-20T10:07:46;6.30;;;2.40;;
25247;SDS011;13191;47.472;11.214;2023-08-20T10:10:14;5.47;;;2.60;;
25247;SDS011;13191;47.472;11.214;2023-08-20T10:12:39;8.80;;;2.50;;
25247;SDS011;13191;47.472;11.214;2023-08-20T10:15:09;7.07;;;2.92;;
25247;SDS011;13191;47.472;11.214;2023-08-20T10:17:39;9.57;;;2.67;;
25247;SDS011;13191;47.472;11.214;2023-08-20T10:20:07;3.65;;;1.90;;
25247;SDS011;13191;47.472;11.214;2023-08-20T10:22:35;6.40;;;3.05;;
25247;SDS011;13191;47.472;11.214;2023-08-20T10:25:05;7.72;;;2.40;;
25247;SDS011;13191;47.472;11.214;2023-08-20T10:27:36;9.13;;;2.90;;
25247;SDS011;13191;47.472;11.214;2023-08-20T10:30:08;6.97;;;2.17;;
25247;SDS011;13191;47.472;11.214;2023-08-20T10:35:11;4.35;;;2.50;;
25247;SDS011;13191;47.472;11.214;2023-08-20T10:37:37;4.80;;;2.45;;
25247;SDS011;13191;47.472;11.214;2023-08-20T10:40:05;9.80;;;2.47;;
25247;SDS011;13191;47.472;11.214;2023-08-20T10:42:31;3.85;;;2.30;;
25247;SDS011;13191;47.472;11.214;2023-08-20T10:45:08;5.60;;;2.50;;
25247;SDS011;13191;47.472;11.214;2023-08-20T10:50:07;8.32;;;2.22;;
25247;SDS011;13191;47.472;11.214;2023-08-20T10:52:39;6.35;;;2.00;;
25247;SDS011;13191;47.472;11.214;2023-08-20T10:55:06;10.27;;;2.23;;
25247;SDS011;13191;47.472;11.214;2023-08-20T10:57:36;6.32;;;2.03;;
25247;SDS011;13191;47.472;11.214;2023-08-20T11:00:03;4.15;;;2.05;;
25247;SDS011;13191;47.472;11.214;2023-08-20T11:02:36;7.00;;;1.92;;
25247;SDS011;13191;47.472;11.214;2023-08-20T11:05:03;9.80;;;2.45;;
25247;SDS011;13191;47.472;11.214;2023-08-20T11:07:29;5.63;;;2.25;;
25247;SDS011;13191;47.472;11.214;2023-08-20T11:09:57;18.13;;;2.15;;
25247;SDS011;13191;47.472;11.214;2023-08-20T11:12:23;4.32;;;1.95;;
25247;SDS011;13191;47.472;11.214;2023-08-20T11:14:48;4.55;;;1.95;;
25247;SDS011;13191;47.472;11.214;2023-08-20T11:17:14;8.90;;;2.17;;
25247;SDS011;13191;47.472;11.214;2023-08-20T11:19:40;8.05;;;2.10;;
25247;SDS011;13191;47.472;11.214;2023-08-20T11:22:06;5.97;;;2.15;;
25247;SDS011;13191;47.472;11.214;2023-08-20T11:24:32;5.28;;;2.90;;
25247;SDS011;13191;47.472;11.214;2023-08-20T11:26:58;4.93;;;2.55;;
25247;SDS011;13191;47.472;11.214;2023-08-20T11:29:24;4.00;;;1.90;;
25247;SDS011;13191;47.472;11.214;2023-08-20T11:31:50;5.65;;;2.30;;
25247;SDS011;13191;47.472;11.214;2023-08-20T11:34:20;6.80;;;1.80;;
25247;SDS011;13191;47.472;11.214;2023-08-20T11:36:46;6.57;;;2.05;;
25247;SDS011;13191;47.472;11.214;2023-08-20T11:39:13;3.55;;;1.70;;
25247;SDS011;13191;47.472;11.214;2023-08-20T11:41:39;4.88;;;1.65;;
25247;SDS011;13191;47.472;11.214;2023-08-20T11:44:05;3.17;;;1.60;;
25247;SDS011;13191;47.472;11.214;2023-08-20T11:46:33;14.77;;;1.50;;
25247;SDS011;13191;47.472;11.214;2023-08-20T11:49:08;4.15;;;1.52;;
25247;SDS011;13191;47.472;11.214;2023-08-20T11:51:35;4.47;;;1.60;;
25247;SDS011;13191;47.472;11.214;2023-08-20T11:54:05;3.20;;;1.10;;
25247;SDS011;13191;47.472;11.214;2023-08-20T11:56:33;5.72;;;1.77;;
25247;SDS011;13191;47.472;11.214;2023-08-20T11:59:00;2.47;;;1.42;;
25247;SDS011;13191;47.472;11.214;2023-08-20T12:01:33;5.32;;;1.20;;
25247;SDS011;13191;47.472;11.214;2023-08-20T12:03:59;6.00;;;1.65;;
25247;SDS011;13191;47.472;11.214;2023-08-20T12:06:26;4.25;;;1.58;;
25247;SDS011;13191;47.472;11.214;2023-08-20T12:08:55;3.45;;;1.38;;
25247;SDS011;13191;47.472;11.214;2023-08-20T12:11:23;2.80;;;1.52;;
25247;SDS011;13191;47.472;11.214;2023-08-20T12:13:51;8.57;;;1.60;;
25247;SDS011;13191;47.472;11.214;2023-08-20T12:16:17;5.93;;;2.00;;
25247;SDS011;13191;47.472;11.214;2023-08-20T12:18:43;4.45;;;1.65;;
25247;SDS011;13191;47.472;11.214;2023-08-20T12:21:11;8.60;;;1.63;;
25247;SDS011;13191;47.472;11.214;2023-08-20T12:23:37;3.28;;;1.65;;
25247;SDS011;13191;47.472;11.214;2023-08-20T12:26:03;3.05;;;1.50;;
25247;SDS011;13191;47.472;11.214;2023-08-20T12:28:28;5.25;;;2.05;;
25247;SDS011;13191;47.472;11.214;2023-08-20T12:30:54;4.65;;;2.08;;
25247;SDS011;13191;47.472;11.214;2023-08-20T12:33:20;5.55;;;1.65;;
25247;SDS011;13191;47.472;11.214;2023-08-20T12:35:46;3.80;;;1.60;;
25247;SDS011;13191;47.472;11.214;2023-08-20T12:38:11;4.82;;;1.80;;
25247;SDS011;13191;47.472;11.214;2023-08-20T12:40:37;3.30;;;1.58;;
25247;SDS011;13191;47.472;11.214;2023-08-20T12:43:03;7.18;;;1.90;;
25247;SDS011;13191;47.472;11.214;2023-08-20T12:45:29;6.22;;;1.70;;
25247;SDS011;13191;47.472;11.214;2023-08-20T12:47:54;6.60;;;2.28;;
25247;SDS011;13191;47.472;11.214;2023-08-20T12:50:20;5.35;;;2.17;;
25247;SDS011;13191;47.472;11.214;2023-08-20T12:52:46;6.93;;;1.77;;
25247;SDS011;13191;47.472;11.214;2023-08-20T12:55:14;3.10;;;1.70;;
25247;SDS011;13191;47.472;11.214;2023-08-20T12:57:51;4.45;;;1.52;;
25247;SDS011;13191;47.472;11.214;2023-08-20T13:00:26;4.18;;;2.05;;
25247;SDS011;13191;47.472;11.214;2023-08-20T13:02:53;3.40;;;1.95;;
25247;SDS011;13191;47.472;11.214;2023-08-20T13:05:20;11.05;;;2.63;;
25247;SDS011;13191;47.472;11.214;2023-08-20T13:07:47;3.67;;;2.25;;
25247;SDS011;13191;47.472;11.214;2023-08-20T13:10:13;6.65;;;2.22;;
25247;SDS011;13191;47.472;11.214;2023-08-20T13:12:40;3.25;;;2.10;;
25247;SDS011;13191;47.472;11.214;2023-08-20T13:15:07;7.80;;;2.22;;
25247;SDS011;13191;47.472;11.214;2023-08-20T13:17:34;4.32;;;1.95;;
25247;SDS011;13191;47.472;11.214;2023-08-20T13:20:00;5.93;;;2.17;;
25247;SDS011;13191;47.472;11.214;2023-08-20T13:22:26;6.85;;;2.85;;
25247;SDS011;13191;47.472;11.214;2023-08-20T13:24:52;5.03;;;1.55;;
25247;SDS011;13191;47.472;11.214;2023-08-20T13:27:17;2.83;;;1.92;;
25247;SDS011;13191;47.472;11.214;2023-08-20T13:29:43;3.72;;;2.28;;
25247;SDS011;13191;47.472;11.214;2023-08-20T13:32:09;6.95;;;2.00;;
25247;SDS011;13191;47.472;11.214;2023-08-20T13:34:34;6.70;;;2.30;;
25247;SDS011;13191;47.472;11.214;2023-08-20T13:37:00;7.28;;;2.00;;
25247;SDS011;13191;47.472;11.214;2023-08-20T13:39:25;5.50;;;2.05;;
25247;SDS011;13191;47.472;11.214;2023-08-20T13:41:51;4.30;;;2.28;;
25247;SDS011;13191;47.472;11.214;2023-08-20T13:44:17;4.05;;;2.42;;
25247;SDS011;13191;47.472;11.214;2023-08-20T13:46:42;4.43;;;2.00;;
25247;SDS011;13191;47.472;11.214;2023-08-20T13:49:08;9.43;;;2.88;;
25247;SDS011;13191;47.472;11.214;2023-08-20T13:51:33;9.38;;;2.42;;
25247;SDS011;13191;47.472;11.214;2023-08-20T13:53:59;5.68;;;2.30;;
25247;SDS011;13191;47.472;11.214;2023-08-20T13:56:25;3.78;;;2.13;;
25247;SDS011;13191;47.472;11.214;2023-08-20T13:58:52;10.05;;;2.20;;
25247;SDS011;13191;47.472;11.214;2023-08-20T14:01:18;4.78;;;2.13;;
25247;SDS011;13191;47.472;11.214;2023-08-20T14:03:43;4.95;;;2.13;;
25247;SDS011;13191;47.472;11.214;2023-08-20T14:06:09;3.70;;;1.92;;
25247;SDS011;13191;47.472;11.214;2023-08-20T14:08:34;6.55;;;1.98;;
25247;SDS011;13191;47.472;11.214;2023-08-20T14:11:00;6.13;;;1.73;;
25247;SDS011;13191;47.472;11.214;2023-08-20T14:13:26;13.35;;;2.72;;
25247;SDS011;13191;47.472;11.214;2023-08-20T14:15:51;5.15;;;2.33;;
25247;SDS011;13191;47.472;11.214;2023-08-20T14:18:17;5.80;;;3.00;;
25247;SDS011;13191;47.472;11.214;2023-08-20T14:20:42;10.80;;;2.42;;
25247;SDS011;13191;47.472;11.214;2023-08-20T14:23:08;4.28;;;2.13;;
25247;SDS011;13191;47.472;11.214;2023-08-20T14:25:33;5.00;;;2.20;;
25247;SDS011;13191;47.472;11.214;2023-08-20T14:27:59;5.68;;;2.00;;
25247;SDS011;13191;47.472;11.214;2023-08-20T14:30:25;4.03;;;2.15;;
25247;SDS011;13191;47.472;11.214;2023-08-20T14:32:52;5.30;;;2.50;;
25247;SDS011;13191;47.472;11.214;2023-08-20T14:35:18;4.07;;;1.90;;
25247;SDS011;13191;47.472;11.214;2023-08-20T14:37:44;3.70;;;2.05;;
25247;SDS011;13191;47.472;11.214;2023-08-20T14:40:10;3.92;;;2.20;;